Time;durP1;ratioP1;P1;durP2;ratioP2;P2;SDS_P1;SDS_P2;PMS_P1;PMS_P2;Temp;Humidity;BMP_temperature;BMP_pressure;BME280_temperature;BME280_humidity;BME280_pressure;Samples;Min_cycle;Max_cycle;Signal;HPM_P1;HPM_P2
2022/07/08 00:01:58;;;;;;;5.95;2.13;;;16.50;96.40;;;;;;5033625;28;20190;-68
2022/07/08 00:04:24;;;;;;;7.82;2.03;;;16.50;96.80;;;;;;5033492;28;20175;-68
2022/07/08 00:06:50;;;;;;;5.22;1.80;;;16.40;96.20;;;;;;5033021;28;20193;-67
2022/07/08 00:09:16;;;;;;;8.38;2.40;;;16.40;96.30;;;;;;5033414;28;20630;-67
2022/07/08 00:11:42;;;;;;;3.90;1.83;;;16.40;96.30;;;;;;5033022;28;20210;-67
2022/07/08 00:14:09;;;;;;;6.15;1.73;;;16.30;96.10;;;;;;5033379;28;20185;-67
2022/07/08 00:16:38;;;;;;;9.52;2.10;;;16.30;96.30;;;;;;5033032;28;20987;-68
2022/07/08 00:19:04;;;;;;;5.88;2.17;;;16.20;96.40;;;;;;5033155;28;20551;-67
2022/07/08 00:21:29;;;;;;;5.05;2.10;;;16.20;96.50;;;;;;5032832;28;20178;-68
2022/07/08 00:23:55;;;;;;;7.10;2.38;;;16.10;96.60;;;;;;5032769;28;20186;-68
2022/07/08 00:26:21;;;;;;;5.60;2.10;;;16.00;96.80;;;;;;5032995;28;20641;-68
2022/07/08 00:28:46;;;;;;;4.43;1.90;;;16.00;97.00;;;;;;5033405;28;20273;-68
2022/07/08 00:31:12;;;;;;;7.90;2.33;;;16.00;97.10;;;;;;5032517;28;20727;-67
2022/07/08 00:33:37;;;;;;;5.50;2.60;;;15.90;97.20;;;;;;5032776;28;20183;-68
2022/07/08 00:36:03;;;;;;;4.90;2.30;;;15.90;97.40;;;;;;5032746;28;20190;-68
2022/07/08 00:38:28;;;;;;;4.30;2.22;;;15.90;97.60;;;;;;5032813;28;20680;-67
2022/07/08 00:40:54;;;;;;;9.57;2.92;;;15.90;97.80;;;;;;5032609;28;20716;-68
2022/07/08 00:43:24;;;;;;;6.15;2.45;;;15.80;97.80;;;;;;5032911;28;20633;-68
2022/07/08 00:45:50;;;;;;;8.95;1.95;;;15.80;97.80;;;;;;5032788;28;20514;-68
2022/07/08 00:48:15;;;;;;;6.75;2.17;;;15.80;98.00;;;;;;5031751;28;20237;-68
2022/07/08 00:50:41;;;;;;;6.07;2.00;;;15.70;97.90;;;;;;5033061;28;20223;-67
2022/07/08 00:53:06;;;;;;;6.75;2.83;;;15.70;98.00;;;;;;5031516;28;20591;-68
2022/07/08 00:55:32;;;;;;;7.03;1.98;;;15.70;98.10;;;;;;5032563;28;20178;-67
2022/07/08 00:57:58;;;;;;;1.60;1.48;;;15.60;98.10;;;;;;5014427;28;20190;-68
2022/07/08 01:00:23;;;;;;;4.32;1.73;;;15.60;98.20;;;;;;5032143;28;20197;-68
2022/07/08 01:02:51;;;;;;;3.90;1.77;;;15.60;98.50;;;;;;5031943;28;20194;-68
2022/07/08 01:05:16;;;;;;;5.38;1.80;;;15.50;98.60;;;;;;5032063;28;20174;-68
2022/07/08 01:07:43;;;;;;;4.28;1.80;;;15.50;98.70;;;;;;5031923;28;20559;-67
2022/07/08 01:10:09;;;;;;;5.18;1.90;;;15.50;98.70;;;;;;5032681;28;20277;-67
2022/07/08 01:12:35;;;;;;;6.13;2.17;;;15.50;98.90;;;;;;5031743;28;20194;-67
2022/07/08 01:15:00;;;;;;;8.00;2.63;;;15.40;98.90;;;;;;5013251;28;20277;-67
2022/07/08 01:17:28;;;;;;;4.22;2.13;;;15.40;99.00;;;;;;5031903;28;20205;-67
2022/07/08 01:19:53;;;;;;;4.35;1.90;;;15.40;99.10;;;;;;5031352;28;20186;-67
2022/07/08 01:22:19;;;;;;;3.40;1.80;;;15.40;99.20;;;;;;5031363;28;20228;-68
2022/07/08 01:24:44;;;;;;;3.47;1.75;;;15.30;99.30;;;;;;5032106;28;20248;-68
2022/07/08 01:27:10;;;;;;;7.20;2.15;;;15.30;99.20;;;;;;5013703;28;20221;-67
2022/07/08 01:29:35;;;;;;;5.05;1.90;;;15.30;99.30;;;;;;5031726;28;20174;-68
2022/07/08 01:32:01;;;;;;;3.80;2.00;;;15.20;99.50;;;;;;5031709;28;20253;-68
2022/07/08 01:34:27;;;;;;;6.80;2.17;;;15.20;99.60;;;;;;5031686;28;20178;-67
2022/07/08 01:36:52;;;;;;;3.60;1.85;;;15.20;99.50;;;;;;5031618;28;20228;-68
2022/07/08 01:39:18;;;;;;;7.15;2.20;;;15.10;99.50;;;;;;5031742;28;20217;-67
2022/07/08 01:41:44;;;;;;;6.88;2.10;;;15.10;99.80;;;;;;5031399;28;20194;-67
2022/07/08 01:44:10;;;;;;;9.57;2.97;;;15.00;99.90;;;;;;5031748;28;20182;-67
2022/07/08 01:46:35;;;;;;;8.15;2.65;;;15.00;99.90;;;;;;5031353;28;20178;-67
2022/07/08 01:49:01;;;;;;;7.20;2.65;;;14.90;99.90;;;;;;5031262;28;20186;-68
2022/07/08 01:51:27;;;;;;;7.10;2.55;;;14.90;99.90;;;;;;5030723;28;20280;-67
2022/07/08 01:53:52;;;;;;;7.30;2.90;;;14.90;99.90;;;;;;5013707;28;20178;-67
2022/07/08 01:56:18;;;;;;;3.10;2.38;;;14.80;99.90;;;;;;5031154;28;20186;-67
2022/07/08 01:58:43;;;;;;;13.27;2.40;;;14.80;99.90;;;;;;5031234;28;20247;-67
2022/07/08 02:01:09;;;;;;;7.35;2.53;;;14.80;99.90;;;;;;5000795;28;20187;-67
2022/07/08 02:03:34;;;;;;;6.40;2.20;;;14.70;99.90;;;;;;5030870;28;20182;-67
2022/07/08 02:06:00;;;;;;;4.60;2.45;;;14.60;99.90;;;;;;5031126;28;20249;-67
2022/07/08 02:08:25;;;;;;;4.53;2.33;;;14.50;99.90;;;;;;5030444;28;20193;-67
2022/07/08 02:13:35;;;;;;;6.68;2.28;;;14.40;99.90;;;;;;5031397;28;20234;-67
2022/07/08 02:16:00;;;;;;;5.68;2.33;;;14.30;99.90;;;;;;5027998;28;20269;-67
2022/07/08 02:18:26;;;;;;;5.45;2.20;;;14.20;99.90;;;;;;5031146;28;20206;-67
2022/07/08 02:20:51;;;;;;;5.78;2.47;;;14.20;99.90;;;;;;5031108;28;20186;-67
2022/07/08 02:23:17;;;;;;;4.55;2.47;;;14.10;99.90;;;;;;5030647;28;20519;-67
2022/07/08 02:25:42;;;;;;;6.50;1.98;;;14.10;99.90;;;;;;5031369;28;20586;-67
2022/07/08 02:28:08;;;;;;;5.05;2.28;;;14.00;99.90;;;;;;5030872;28;20213;-67
2022/07/08 02:30:33;;;;;;;6.60;2.38;;;14.00;99.90;;;;;;5030717;28;20279;-67
2022/07/08 02:32:59;;;;;;;5.30;2.13;;;13.90;99.90;;;;;;5030262;28;20205;-67
2022/07/08 02:35:25;;;;;;;4.82;2.30;;;13.90;99.90;;;;;;5031039;28;20186;-67
2022/07/08 02:37:50;;;;;;;4.22;2.20;;;13.80;99.90;;;;;;5030342;28;20240;-67
2022/07/08 02:40:16;;;;;;;5.68;2.05;;;13.80;99.90;;;;;;5030659;28;20234;-66
2022/07/08 02:42:41;;;;;;;5.75;2.53;;;13.80;99.90;;;;;;5030226;28;20184;-67
2022/07/08 02:45:08;;;;;;;7.80;2.00;;;13.70;99.90;;;;;;5031019;28;20175;-67
2022/07/08 02:47:33;;;;;;;8.10;2.35;;;13.70;99.90;;;;;;5030422;28;20645;-66
2022/07/08 02:49:59;;;;;;;6.07;2.03;;;13.60;99.90;;;;;;5013054;28;20324;-67
2022/07/08 02:52:24;;;;;;;4.15;2.10;;;13.50;99.90;;;;;;5012605;28;20587;-67
2022/07/08 02:54:50;;;;;;;4.18;2.50;;;13.50;99.90;;;;;;5030955;28;20178;-67
2022/07/08 02:57:15;;;;;;;5.25;2.15;;;13.40;99.90;;;;;;5012975;28;20273;-67
2022/07/08 02:59:41;;;;;;;5.88;2.58;;;13.40;99.90;;;;;;5030534;28;20179;-67
2022/07/08 03:02:06;;;;;;;6.72;2.42;;;13.40;99.90;;;;;;5029838;28;20177;-67
2022/07/08 03:04:32;;;;;;;5.50;2.25;;;13.40;99.90;;;;;;5030006;28;20965;-67
2022/07/08 03:06:57;;;;;;;3.70;2.20;;;13.20;99.90;;;;;;5030996;28;20257;-67
2022/07/08 03:09:23;;;;;;;3.63;2.20;;;13.20;99.90;;;;;;5030684;28;20194;-67
2022/07/08 03:11:48;;;;;;;6.32;2.88;;;13.10;99.90;;;;;;5030673;28;20240;-67
2022/07/08 03:14:14;;;;;;;6.00;2.17;;;13.10;99.90;;;;;;5033804;28;20590;-68
2022/07/08 03:16:39;;;;;;;7.47;2.35;;;13.10;99.90;;;;;;5034009;28;20182;-67
2022/07/08 03:19:05;;;;;;;5.15;2.33;;;13.00;99.90;;;;;;5034280;28;20201;-67
2022/07/08 03:21:30;;;;;;;3.90;2.55;;;13.00;99.90;;;;;;5034205;28;20184;-67
2022/07/08 03:23:56;;;;;;;6.40;2.00;;;13.00;99.90;;;;;;5034422;28;20870;-67
2022/07/08 03:26:21;;;;;;;4.03;2.70;;;12.90;99.90;;;;;;5033994;28;20189;-68
2022/07/08 03:28:47;;;;;;;6.32;2.58;;;12.80;99.90;;;;;;5034142;28;20182;-67
2022/07/08 03:31:13;;;;;;;7.30;2.30;;;12.80;99.90;;;;;;5033739;28;20332;-67
2022/07/08 03:33:38;;;;;;;5.72;2.80;;;12.70;99.90;;;;;;5034301;28;20260;-68
2022/07/08 03:36:06;;;;;;;4.88;2.47;;;12.70;99.90;;;;;;5034320;28;20672;-67
2022/07/08 03:38:32;;;;;;;7.55;2.58;;;12.70;99.90;;;;;;5033842;28;20201;-66
2022/07/08 03:43:41;;;;;;;3.85;2.30;;;12.70;99.90;;;;;;5021227;28;20672;-68
2022/07/08 03:46:07;;;;;;;3.28;2.13;;;12.70;99.90;;;;;;5034333;28;20186;-67
2022/07/08 03:48:33;;;;;;;7.00;2.42;;;12.80;99.90;;;;;;5033639;28;20740;-67
2022/07/08 03:50:58;;;;;;;6.20;2.67;;;12.80;99.90;;;;;;5003484;28;20731;-67
2022/07/08 03:53:24;;;;;;;5.30;2.75;;;12.80;99.90;;;;;;5023458;28;20189;-67
2022/07/08 03:55:49;;;;;;;6.80;3.13;;;12.80;99.90;;;;;;5015893;28;20541;-67
2022/07/08 03:58:15;;;;;;;6.50;2.55;;;12.80;99.90;;;;;;5033337;28;20178;-68
2022/07/08 04:00:40;;;;;;;5.50;2.10;;;12.80;99.90;;;;;;5033921;28;20197;-69
2022/07/08 04:03:06;;;;;;;5.18;2.03;;;12.80;99.90;;;;;;5033359;28;20312;-68
2022/07/08 04:05:31;;;;;;;7.78;2.88;;;12.80;99.90;;;;;;5015810;28;20275;-68
2022/07/08 04:07:57;;;;;;;5.13;2.35;;;12.70;99.90;;;;;;5033379;28;20218;-69
2022/07/08 04:10:22;;;;;;;4.22;2.33;;;12.80;99.90;;;;;;5015983;28;20205;-69
2022/07/08 04:12:48;;;;;;;5.32;3.20;;;12.80;99.90;;;;;;5033396;28;20186;-70
2022/07/08 04:15:13;;;;;;;7.30;3.17;;;12.80;99.90;;;;;;5033740;28;20174;-70
2022/07/08 04:17:39;;;;;;;3.92;2.20;;;12.90;99.90;;;;;;5032915;28;20201;-69
2022/07/08 04:20:05;;;;;;;5.60;2.63;;;13.00;99.90;;;;;;5033642;28;20217;-67
2022/07/08 04:22:31;;;;;;;5.20;2.33;;;13.00;99.90;;;;;;5033572;28;20196;-67
2022/07/08 04:24:56;;;;;;;3.17;2.15;;;13.10;99.90;;;;;;5033318;28;20183;-73
2022/07/08 04:27:22;;;;;;;4.88;2.38;;;13.30;99.90;;;;;;5033243;28;20174;-66
2022/07/08 04:29:47;;;;;;;5.70;2.47;;;13.50;99.90;;;;;;5033588;28;20198;-68
2022/07/08 04:32:13;;;;;;;3.83;2.10;;;13.90;99.90;;;;;;5031781;28;20221;-66
2022/07/08 04:34:38;;;;;;;4.60;2.30;;;14.20;99.90;;;;;;5029559;28;20182;-70
2022/07/08 04:37:04;;;;;;;5.95;2.38;;;14.60;99.90;;;;;;5031891;28;20190;-70
2022/07/08 04:39:29;;;;;;;4.70;2.05;;;15.00;99.90;;;;;;5044443;28;20218;-72
2022/07/08 04:41:55;;;;;;;5.55;2.22;;;15.40;99.90;;;;;;5032724;28;20541;-72
2022/07/08 04:44:20;;;;;;;5.45;2.13;;;15.80;99.90;;;;;;5031917;28;20186;-67
2022/07/08 04:46:46;;;;;;;6.03;2.25;;;16.20;99.90;;;;;;5014802;28;20576;-67
2022/07/08 04:49:11;;;;;;;3.40;2.17;;;16.60;99.90;;;;;;5033169;28;20182;-66
2022/07/08 04:51:37;;;;;;;7.38;2.20;;;17.00;99.60;;;;;;5033040;28;20622;-67
2022/07/08 04:54:02;;;;;;;4.85;2.08;;;17.40;98.70;;;;;;5015333;28;20186;-67
2022/07/08 04:56:28;;;;;;;4.78;1.90;;;17.80;97.90;;;;;;5032800;28;20189;-67
2022/07/08 04:58:53;;;;;;;13.68;2.47;;;18.20;96.80;;;;;;5032958;28;20181;-67
2022/07/08 05:01:19;;;;;;;4.50;1.90;;;18.50;96.40;;;;;;5032863;28;20634;-67
2022/07/08 05:03:44;;;;;;;4.85;1.92;;;19.00;96.10;;;;;;5032426;28;20175;-67
2022/07/08 05:06:10;;;;;;;6.85;2.08;;;19.40;95.30;;;;;;5032809;28;20171;-67
2022/07/08 05:08:35;;;;;;;7.30;2.58;;;19.90;94.30;;;;;;5032844;28;20174;-67
2022/07/08 05:11:01;;;;;;;5.25;1.90;;;20.40;93.10;;;;;;5032731;28;20240;-68
2022/07/08 05:13:27;;;;;;;7.05;2.70;;;20.90;92.20;;;;;;5032619;28;20568;-68
2022/07/08 05:15:52;;;;;;;4.30;2.15;;;21.30;91.20;;;;;;5032719;28;20269;-68
2022/07/08 05:18:18;;;;;;;5.10;2.35;;;21.70;90.20;;;;;;5032301;28;20170;-67
2022/07/08 05:20:43;;;;;;;3.00;1.90;;;22.10;88.00;;;;;;5032470;28;20190;-68
2022/07/08 05:23:09;;;;;;;8.52;3.13;;;22.50;86.20;;;;;;5032384;28;20170;-67
2022/07/08 05:25:34;;;;;;;9.15;4.45;;;22.90;84.10;;;;;;5032342;28;20174;-67
2022/07/08 05:28:00;;;;;;;7.38;2.20;;;23.20;82.00;;;;;;5032480;28;20315;-67
2022/07/08 05:30:25;;;;;;;7.03;1.95;;;23.20;79.70;;;;;;5032140;28;20198;-68
2022/07/08 05:32:51;;;;;;;10.63;4.85;;;23.30;78.50;;;;;;5032317;28;20547;-67
2022/07/08 05:35:16;;;;;;;6.60;3.13;;;23.60;78.90;;;;;;5031534;28;20178;-67
2022/07/08 05:37:42;;;;;;;4.35;2.00;;;23.90;77.90;;;;;;5032071;28;20178;-67
2022/07/08 05:40:09;;;;;;;4.13;1.90;;;24.20;76.20;;;;;;5032033;28;20233;-68
2022/07/08 05:42:35;;;;;;;4.20;1.77;;;24.50;75.80;;;;;;5014377;28;20182;-68
2022/07/08 05:45:01;;;;;;;3.13;1.85;;;24.90;74.00;;;;;;5032106;28;20255;-69
2022/07/08 05:47:26;;;;;;;3.70;1.45;;;25.30;71.90;;;;;;5031965;28;20202;-68
2022/07/08 05:49:52;;;;;;;4.60;1.70;;;25.60;68.90;;;;;;5031801;28;20605;-68
2022/07/08 05:52:18;;;;;;;4.07;1.73;;;25.70;66.40;;;;;;5031845;28;20186;-68
2022/07/08 05:54:45;;;;;;;3.95;1.70;;;25.90;65.70;;;;;;5031869;28;20166;-68
2022/07/08 05:57:11;;;;;;;4.50;1.63;;;26.00;64.00;;;;;;5031749;28;20221;-67
2022/07/08 05:59:37;;;;;;;5.53;1.70;;;26.20;62.40;;;;;;5031778;28;20186;-68
2022/07/08 06:02:03;;;;;;;4.40;1.50;;;26.20;63.30;;;;;;5031735;28;20258;-68
2022/07/08 06:04:29;;;;;;;3.58;1.45;;;26.40;62.00;;;;;;5031648;28;20186;-68
2022/07/08 06:06:55;;;;;;;4.78;1.52;;;26.80;60.80;;;;;;5031820;28;20174;-68
2022/07/08 06:09:20;;;;;;;3.80;1.63;;;27.30;60.10;;;;;;5014026;28;20554;-68
2022/07/08 06:11:46;;;;;;;4.32;1.52;;;27.80;58.90;;;;;;5031541;28;20222;-69
2022/07/08 06:14:11;;;;;;;3.58;1.38;;;28.20;55.70;;;;;;5031677;28;20261;-68
2022/07/08 06:16:37;;;;;;;4.35;1.52;;;28.50;55.10;;;;;;5031628;28;20181;-69
2022/07/08 06:19:02;;;;;;;6.68;1.55;;;28.90;54.40;;;;;;5031221;28;20635;-69
2022/07/08 06:21:28;;;;;;;3.55;1.25;;;29.30;53.60;;;;;;5031407;28;20194;-69
2022/07/08 06:23:53;;;;;;;3.03;1.83;;;29.40;52.30;;;;;;5031545;28;20178;-69
2022/07/08 06:26:19;;;;;;;6.40;1.42;;;29.70;52.00;;;;;;5031465;28;20216;-69
2022/07/08 06:28:44;;;;;;;3.90;1.30;;;30.10;50.80;;;;;;5031446;28;20508;-68
2022/07/08 06:31:10;;;;;;;3.25;1.33;;;30.10;49.20;;;;;;5031487;28;20300;-68
2022/07/08 06:33:35;;;;;;;5.15;1.20;;;30.20;49.10;;;;;;5031345;28;20180;-68
2022/07/08 06:36:01;;;;;;;4.78;1.02;;;30.20;48.50;;;;;;5031500;28;20265;-69
2022/07/08 06:38:26;;;;;;;2.22;1.23;;;30.30;48.20;;;;;;5031351;28;20278;-68
2022/07/08 06:40:52;;;;;;;4.10;1.00;;;30.30;47.60;;;;;;5031159;28;20229;-69
2022/07/08 06:43:17;;;;;;;1.92;0.90;;;30.40;47.00;;;;;;5031312;28;20182;-68
2022/07/08 06:45:44;;;;;;;3.05;1.17;;;30.70;46.60;;;;;;5031304;28;20261;-68
2022/07/08 06:48:10;;;;;;;2.47;0.75;;;31.00;46.00;;;;;;5034171;28;20281;-68
2022/07/08 06:50:35;;;;;;;3.38;1.00;;;31.30;45.10;;;;;;5035066;28;20716;-70
2022/07/08 06:53:01;;;;;;;2.08;1.05;;;31.40;44.40;;;;;;5035182;28;20220;-69
2022/07/08 06:55:26;;;;;;;3.60;1.17;;;31.30;44.80;;;;;;5035052;28;20284;-69
2022/07/08 06:57:52;;;;;;;1.98;1.02;;;31.40;44.70;;;;;;5035023;28;20182;-69
2022/07/08 07:00:18;;;;;;;3.08;1.15;;;31.80;44.50;;;;;;5035029;28;20725;-69
2022/07/08 07:02:43;;;;;;;4.53;1.10;;;32.20;43.20;;;;;;5035104;28;20166;-69
2022/07/08 07:05:09;;;;;;;2.05;0.98;;;32.60;42.70;;;;;;5035061;28;20174;-70
2022/07/08 07:07:34;;;;;;;3.15;1.13;;;32.70;42.10;;;;;;5034980;28;20186;-69
2022/07/08 07:10:01;;;;;;;4.75;0.90;;;33.10;41.50;;;;;;5035044;28;20179;-69
2022/07/08 07:12:27;;;;;;;4.03;0.82;;;33.40;39.30;;;;;;5034872;28;20687;-70
2022/07/08 07:14:53;;;;;;;1.20;0.60;;;33.40;38.50;;;;;;5034987;28;20184;-69
2022/07/08 07:17:19;;;;;;;2.30;0.80;;;33.60;38.50;;;;;;5034737;28;20178;-69
2022/07/08 07:19:46;;;;;;;3.33;0.90;;;33.50;38.00;;;;;;5034682;28;20210;-69
2022/07/08 07:22:12;;;;;;;2.90;1.10;;;32.60;37.60;;;;;;5034859;28;20174;-68
2022/07/08 07:24:38;;;;;;;3.35;0.73;;;31.70;38.90;;;;;;5016998;28;20691;-70
2022/07/08 07:27:04;;;;;;;1.05;0.73;;;31.20;39.60;;;;;;5034649;28;20170;-70
2022/07/08 07:29:29;;;;;;;2.95;0.88;;;31.00;40.30;;;;;;5034491;28;20754;-70
2022/07/08 07:31:55;;;;;;;1.92;0.90;;;31.10;40.90;;;;;;5034558;28;20305;-69
2022/07/08 07:34:20;;;;;;;4.07;1.10;;;31.70;41.20;;;;;;5034349;28;20214;-70
2022/07/08 07:36:46;;;;;;;1.73;0.95;;;32.30;39.40;;;;;;5034476;28;20209;-70
2022/07/08 07:39:11;;;;;;;2.03;0.90;;;32.60;39.00;;;;;;5034296;28;20217;-70
2022/07/08 07:41:37;;;;;;;0.98;0.57;;;32.70;38.50;;;;;;5034443;28;20286;-70
2022/07/08 07:44:04;;;;;;;4.72;1.00;;;33.10;38.70;;;;;;5034188;28;20540;-70
2022/07/08 07:46:29;;;;;;;3.92;0.75;;;33.40;37.00;;;;;;5034411;28;20182;-71
2022/07/08 07:48:55;;;;;;;1.52;0.63;;;33.00;36.30;;;;;;5034363;28;20261;-71
2022/07/08 07:51:21;;;;;;;1.58;0.82;;;32.60;37.00;;;;;;5034384;28;20269;-70
2022/07/08 07:53:47;;;;;;;1.33;1.08;;;32.40;38.20;;;;;;5033332;28;20188;-70
2022/07/08 07:56:13;;;;;;;2.33;0.60;;;32.30;37.70;;;;;;5035606;28;20716;-70
2022/07/08 07:58:38;;;;;;;1.45;0.75;;;31.90;38.70;;;;;;5036572;28;20747;-70
2022/07/08 08:01:05;;;;;;;1.80;0.70;;;31.00;38.30;;;;;;5033971;28;20204;-70
2022/07/08 08:03:30;;;;;;;2.08;1.10;;;29.70;39.40;;;;;;5033908;28;20193;-70
2022/07/08 08:05:56;;;;;;;3.00;1.13;;;28.90;41.70;;;;;;5034124;28;20186;-70
2022/07/08 08:08:24;;;;;;;1.92;0.90;;;28.90;42.00;;;;;;5033852;28;20549;-70
2022/07/08 08:10:50;;;;;;;2.10;1.00;;;29.30;42.80;;;;;;5016303;28;20654;-70
2022/07/08 08:13:16;;;;;;;1.92;0.77;;;30.20;41.60;;;;;;5016008;28;20178;-70
2022/07/08 08:15:41;;;;;;;2.95;1.02;;;31.00;41.20;;;;;;5033770;28;20182;-71
2022/07/08 08:18:07;;;;;;;4.13;0.95;;;31.60;39.70;;;;;;5033703;28;20740;-70
2022/07/08 08:20:32;;;;;;;2.42;0.55;;;32.00;40.20;;;;;;5033806;28;20178;-70
2022/07/08 08:22:58;;;;;;;1.35;0.65;;;31.90;38.70;;;;;;5033936;28;20182;-70
2022/07/08 08:25:24;;;;;;;3.08;1.20;;;31.60;38.90;;;;;;5032221;28;20201;-70
2022/07/08 08:27:50;;;;;;;2.95;0.85;;;30.80;39.70;;;;;;5033760;28;20253;-70
2022/07/08 08:30:17;;;;;;;4.20;1.25;;;29.70;40.70;;;;;;5033878;28;20281;-69
2022/07/08 08:32:43;;;;;;;1.42;0.80;;;28.90;41.70;;;;;;5033574;28;20175;-70
2022/07/08 08:35:09;;;;;;;4.00;1.00;;;28.50;43.80;;;;;;5033638;28;20201;-70
2022/07/08 08:37:35;;;;;;;2.72;1.00;;;28.60;44.20;;;;;;5033544;28;20209;-70
2022/07/08 08:40:05;;;;;;;2.20;0.75;;;29.10;43.30;;;;;;5033348;28;20320;-70
2022/07/08 08:42:31;;;;;;;2.47;0.80;;;29.40;41.80;;;;;;5033491;28;20182;-70
2022/07/08 08:45:02;;;;;;;3.47;0.93;;;29.60;41.80;;;;;;5033481;28;20231;-70
2022/07/08 08:47:32;;;;;;;2.63;1.00;;;29.90;42.90;;;;;;5033370;28;20174;-70
2022/07/08 08:50:53;;;;;;;1.80;0.80;;;30.50;41.80;;;;;;5033195;28;20186;-71
2022/07/08 08:52:49;;;;;;;4.38;0.85;;;30.80;42.10;;;;;;5033256;28;20648;-70
2022/07/08 08:55:28;;;;;;;6.68;1.08;;;31.10;41.80;;;;;;5033253;28;20627;-69
2022/07/08 08:57:57;;;;;;;3.80;1.00;;;31.30;42.00;;;;;;5033032;28;20217;-69
2022/07/08 09:00:23;;;;;;;4.03;0.90;;;31.30;40.20;;;;;;5032894;28;20186;-70
2022/07/08 09:02:48;;;;;;;3.17;0.90;;;31.10;40.90;;;;;;5033046;28;20185;-71
2022/07/08 09:05:15;;;;;;;1.70;0.95;;;30.80;41.20;;;;;;5033000;28;20210;-70
2022/07/08 09:07:41;;;;;;;2.72;0.90;;;30.50;41.20;;;;;;5033002;28;20174;-70
2022/07/08 09:10:07;;;;;;;1.63;0.77;;;30.20;41.20;;;;;;5031924;28;20183;-70
2022/07/08 09:12:33;;;;;;;3.85;0.80;;;30.40;41.40;;;;;;5032669;28;20178;-70
2022/07/08 09:15:00;;;;;;;2.03;1.00;;;30.80;41.30;;;;;;5032838;28;20506;-71
2022/07/08 09:17:26;;;;;;;3.58;1.17;;;30.70;40.00;;;;;;5032483;28;20189;-70
2022/07/08 09:19:51;;;;;;;2.15;0.82;;;30.30;40.60;;;;;;5032635;28;20655;-71
2022/07/08 09:22:20;;;;;;;3.00;1.17;;;29.90;40.80;;;;;;5032710;28;20181;-70
2022/07/08 09:24:46;;;;;;;1.90;1.17;;;29.40;41.30;;;;;;5032528;28;20239;-70
2022/07/08 09:27:12;;;;;;;5.15;1.10;;;29.50;42.50;;;;;;5032559;28;20229;-70
2022/07/08 09:29:55;;;;;;;3.38;1.35;;;29.50;43.60;;;;;;5032506;28;20182;-71
2022/07/08 09:32:21;;;;;;;2.78;0.95;;;29.70;43.30;;;;;;5032296;28;20307;-70
2022/07/08 09:34:47;;;;;;;2.55;0.90;;;30.00;42.60;;;;;;5032491;28;20218;-71
2022/07/08 09:37:15;;;;;;;4.15;1.00;;;29.90;42.30;;;;;;5032362;28;20178;-70
2022/07/08 09:39:44;;;;;;;1.92;0.90;;;29.60;42.50;;;;;;5032136;28;20236;-70
2022/07/08 09:42:13;;;;;;;3.15;0.90;;;29.30;42.40;;;;;;5032325;28;20182;-69
2022/07/08 09:44:39;;;;;;;1.95;0.75;;;28.80;43.50;;;;;;5032101;28;20518;-70
2022/07/08 09:47:09;;;;;;;3.72;1.30;;;28.40;43.10;;;;;;5032123;28;20249;-70
2022/07/08 09:49:35;;;;;;;2.30;1.05;;;28.50;44.10;;;;;;5032100;28;20194;-71
2022/07/08 09:52:01;;;;;;;1.70;0.82;;;29.00;44.50;;;;;;5032107;28;20264;-71
2022/07/08 09:54:28;;;;;;;1.88;0.90;;;29.50;43.40;;;;;;5032168;28;20178;-71
2022/07/08 09:57:01;;;;;;;2.83;1.08;;;29.90;42.40;;;;;;5032110;28;20578;-71
2022/07/08 09:59:30;;;;;;;2.15;0.90;;;30.40;42.50;;;;;;5014990;28;20167;-72
2022/07/08 10:01:57;;;;;;;2.85;0.80;;;30.60;41.90;;;;;;4997997;28;20182;-69
2022/07/08 10:04:24;;;;;;;2.22;1.00;;;30.60;40.80;;;;;;5031676;28;20178;-70
2022/07/08 10:06:54;;;;;;;5.60;1.30;;;30.60;41.60;;;;;;5031980;28;20197;-71
2022/07/08 10:09:21;;;;;;;3.33;1.05;;;30.70;41.20;;;;;;5031918;28;20182;-70
2022/07/08 10:11:47;;;;;;;2.38;0.80;;;30.80;41.20;;;;;;5031612;28;20206;-70
2022/07/08 10:14:13;;;;;;;4.60;1.10;;;31.00;41.20;;;;;;5031560;28;20182;-70
2022/07/08 10:16:40;;;;;;;1.85;0.80;;;31.10;40.80;;;;;;5031835;28;20269;-70
2022/07/08 10:19:13;;;;;;;2.47;1.13;;;31.00;40.90;;;;;;5031546;28;20174;-71
2022/07/08 10:21:41;;;;;;;4.05;1.13;;;31.00;40.60;;;;;;5031530;28;20170;-70
2022/07/08 10:24:20;;;;;;;3.17;0.70;;;30.70;41.00;;;;;;5031816;28;20173;-71
2022/07/08 10:26:46;;;;;;;2.53;0.88;;;30.20;41.00;;;;;;5031617;28;20189;-70
2022/07/08 10:29:12;;;;;;;2.83;0.93;;;29.90;40.90;;;;;;5031527;28;20174;-71
2022/07/08 10:31:43;;;;;;;2.05;0.57;;;29.90;41.50;;;;;;5031634;28;20260;-71
2022/07/08 10:34:09;;;;;;;5.75;1.13;;;30.00;41.10;;;;;;5031534;28;20641;-70
2022/07/08 10:36:46;;;;;;;2.97;0.68;;;30.10;41.00;;;;;;5031469;28;20189;-71
2022/07/08 10:39:13;;;;;;;2.50;1.80;;;30.30;41.00;;;;;;5031423;28;20349;-70
2022/07/08 10:41:39;;;;;;;2.75;1.17;;;30.40;40.70;;;;;;5031561;28;20178;-71
2022/07/08 10:44:05;;;;;;;2.47;1.17;;;30.40;42.00;;;;;;5031387;28;20171;-70
2022/07/08 10:46:31;;;;;;;3.53;1.33;;;30.40;40.80;;;;;;5031451;28;20536;-71
2022/07/08 10:48:58;;;;;;;2.58;0.90;;;30.00;41.30;;;;;;5031640;28;20264;-71
2022/07/08 10:51:24;;;;;;;3.20;0.88;;;29.60;42.80;;;;;;5031248;28;20225;-71
2022/07/08 10:53:53;;;;;;;3.45;1.15;;;29.30;43.00;;;;;;5031618;28;20178;-71
2022/07/08 10:56:53;;;;;;;3.30;0.90;;;29.20;43.00;;;;;;5031396;28;20793;-71
2022/07/08 10:59:22;;;;;;;3.70;0.98;;;28.80;42.40;;;;;;5031574;28;20189;-70
2022/07/08 11:02:14;;;;;;;2.08;1.13;;;28.50;43.30;;;;;;5031421;28;20175;-71
2022/07/08 11:04:43;;;;;;;3.13;1.10;;;28.50;44.80;;;;;;5031391;28;20281;-71
2022/07/08 11:07:20;;;;;;;4.00;1.30;;;28.70;44.80;;;;;;5031505;28;20174;-71
2022/07/08 11:09:49;;;;;;;2.13;0.90;;;29.00;43.70;;;;;;5031337;28;20178;-71
2022/07/08 11:12:16;;;;;;;2.35;0.80;;;28.90;42.40;;;;;;5031205;28;20248;-70
2022/07/08 11:14:43;;;;;;;2.47;0.88;;;28.90;43.60;;;;;;5013582;28;20591;-71
2022/07/08 11:17:16;;;;;;;2.90;1.27;;;29.00;43.20;;;;;;5031319;28;20185;-71
2022/07/08 11:19:43;;;;;;;3.60;0.85;;;29.00;42.60;;;;;;5031230;28;20216;-71
2022/07/08 11:22:12;;;;;;;3.45;1.08;;;29.00;43.20;;;;;;5031400;28;20182;-70
2022/07/08 11:24:39;;;;;;;3.47;1.17;;;29.10;43.70;;;;;;5031504;28;20220;-71
2022/07/08 11:27:06;;;;;;;3.72;1.20;;;29.20;43.60;;;;;;5031153;28;20696;-71
2022/07/08 11:29:35;;;;;;;4.90;1.02;;;29.30;44.50;;;;;;5031188;28;20240;-72
2022/07/08 11:32:04;;;;;;;4.15;1.35;;;29.30;42.90;;;;;;5031146;28;20218;-71
2022/07/08 11:34:30;;;;;;;2.88;1.45;;;29.20;42.30;;;;;;5034188;28;20660;-70
2022/07/08 11:36:56;;;;;;;3.40;1.00;;;28.90;42.00;;;;;;5034686;28;20178;-70
2022/07/08 11:39:22;;;;;;;2.55;0.90;;;28.20;42.50;;;;;;5034191;28;20681;-70
2022/07/08 11:41:48;;;;;;;2.60;1.08;;;27.90;44.00;;;;;;5034685;28;20182;-70
2022/07/08 11:44:18;;;;;;;1.52;0.68;;;27.70;44.00;;;;;;5034527;28;20205;-70
2022/07/08 11:46:54;;;;;;;3.70;1.10;;;27.90;44.80;;;;;;5034387;28;20233;-70
2022/07/08 11:49:21;;;;;;;2.88;0.80;;;27.90;44.20;;;;;;5033268;28;20191;-70
2022/07/08 11:51:54;;;;;;;2.47;1.00;;;28.20;44.40;;;;;;5034361;28;20632;-70
2022/07/08 11:54:22;;;;;;;2.83;1.00;;;28.30;43.40;;;;;;5034351;28;20178;-70
2022/07/08 11:56:51;;;;;;;2.08;0.75;;;28.30;42.70;;;;;;5034222;28;20222;-70
2022/07/08 11:59:46;;;;;;;4.05;1.00;;;28.10;43.10;;;;;;5034281;28;20166;-70
2022/07/08 12:02:14;;;;;;;4.18;1.15;;;28.10;45.00;;;;;;5015036;28;20186;-70
2022/07/08 12:04:50;;;;;;;2.70;1.05;;;28.30;44.40;;;;;;5034058;28;20231;-71
2022/07/08 12:07:27;;;;;;;4.20;0.80;;;28.40;43.60;;;;;;5034033;28;20588;-70
2022/07/08 12:09:57;;;;;;;1.70;0.90;;;28.40;43.60;;;;;;5034172;28;20252;-70
2022/07/08 12:12:28;;;;;;;4.25;0.95;;;28.30;43.20;;;;;;5033872;28;20616;-70
2022/07/08 12:14:54;;;;;;;0.93;0.77;;;28.30;42.80;;;;;;5034076;28;20166;-70
2022/07/08 12:17:26;;;;;;;1.67;0.80;;;28.00;42.60;;;;;;5033939;28;20530;-69
2022/07/08 12:19:53;;;;;;;3.08;0.82;;;27.70;43.40;;;;;;5033690;28;20859;-71
2022/07/08 12:22:45;;;;;;;2.58;0.95;;;27.60;45.10;;;;;;5033847;28;20170;-70
2022/07/08 12:25:11;;;;;;;2.08;0.95;;;27.40;45.10;;;;;;5033801;28;20178;-70
2022/07/08 12:27:37;;;;;;;3.35;1.00;;;27.50;46.00;;;;;;5033655;28;20177;-71
2022/07/08 12:30:04;;;;;;;5.88;2.97;;;27.70;46.30;;;;;;5033454;28;20231;-71
2022/07/08 12:32:41;;;;;;;1.63;1.25;;;27.70;45.80;;;;;;5033628;28;20197;-70
2022/07/08 12:35:08;;;;;;;3.95;1.33;;;27.50;44.50;;;;;;5033681;28;20265;-71
2022/07/08 12:37:34;;;;;;;2.17;1.00;;;27.50;44.80;;;;;;5033604;28;20185;-71
2022/07/08 12:40:17;;;;;;;4.80;1.17;;;27.50;45.30;;;;;;5033309;28;20234;-71
2022/07/08 12:42:43;;;;;;;2.63;1.17;;;27.20;44.30;;;;;;5033398;28;20227;-71
2022/07/08 12:45:16;;;;;;;4.18;0.80;;;27.20;45.30;;;;;;5033263;28;20251;-71
2022/07/08 12:47:42;;;;;;;2.65;1.00;;;27.20;45.60;;;;;;5033438;28;20178;-71
2022/07/08 12:50:08;;;;;;;4.53;1.15;;;27.00;45.70;;;;;;5033340;28;20182;-71